createdAt,value
2023-12-27T00:02:39.333Z,100880.44
2023-12-27T00:05:42.564Z,100884.28
2023-12-27T00:08:46.867Z,100890.16
2023-12-27T00:11:50.164Z,100888.59
2023-12-27T00:14:53.244Z,100901.00
2023-12-27T00:17:56.674Z,100897.47
2023-12-27T00:21:00.135Z,100894.44
2023-12-27T00:24:05.647Z,100902.16
2023-12-27T00:27:08.804Z,100904.47
2023-12-27T00:30:12.476Z,100900.59
2023-12-27T00:33:16.881Z,100904.06
2023-12-27T00:36:21.789Z,100909.53
2023-12-27T00:39:26.344Z,100923.09
2023-12-27T00:42:29.390Z,100923.47
2023-12-27T00:45:32.518Z,100941.28
2023-12-27T00:48:35.515Z,100931.59
2023-12-27T00:51:38.971Z,100944.00
2023-12-27T00:54:43.459Z,100946.66
2023-12-27T00:57:46.569Z,100948.22
2023-12-27T01:00:50.760Z,100946.25
2023-12-27T01:03:53.876Z,100947.81
2023-12-27T01:06:57.229Z,100960.59
2023-12-27T01:10:00.458Z,100971.41
2023-12-27T01:13:03.435Z,100975.69
2023-12-27T01:16:06.786Z,100987.25
2023-12-27T01:19:12.080Z,100995.06
2023-12-27T01:22:15.371Z,100992.38
2023-12-27T01:25:18.244Z,101012.50
2023-12-27T01:28:21.385Z,101023.72
2023-12-27T01:31:24.515Z,101020.25
2023-12-27T01:34:27.958Z,101025.28
2023-12-27T01:37:30.881Z,101023.75
2023-12-27T01:40:34.106Z,101027.59
2023-12-27T01:43:37.307Z,101024.50
2023-12-27T01:46:40.433Z,101021.41
2023-12-27T01:49:43.493Z,101020.25
2023-12-27T01:52:46.967Z,101031.84
2023-12-27T01:55:50.731Z,101023.72
2023-12-27T01:58:53.919Z,101014.03
2023-12-27T02:01:57.488Z,101009.78
2023-12-27T02:05:00.710Z,101007.44
2023-12-27T02:08:05.910Z,101001.97
2023-12-27T02:11:08.864Z,101011.25
2023-12-27T02:14:12.164Z,101008.84
2023-12-27T02:17:15.622Z,101007.69
2023-12-27T02:20:18.995Z,101019.25
2023-12-27T02:23:23.386Z,101025.81
2023-12-27T02:26:26.563Z,101024.31
2023-12-27T02:29:29.730Z,101010.00
2023-12-27T02:32:33.069Z,101020.84
2023-12-27T02:35:36.674Z,101020.47
2023-12-27T02:38:39.840Z,101020.84
2023-12-27T02:41:43.045Z,101029.75
2023-12-27T02:44:46.440Z,101023.63
2023-12-27T02:47:49.593Z,101029.03
2023-12-27T02:50:52.767Z,101027.88
2023-12-27T02:53:56.121Z,101034.00
2023-12-27T02:56:59.351Z,101031.28
2023-12-27T03:00:04.549Z,101031.63
2023-12-27T03:03:07.871Z,101029.66
2023-12-27T03:06:11.160Z,101034.28
2023-12-27T03:09:14.162Z,101026.19
2023-12-27T03:12:17.378Z,101020.75
2023-12-27T03:15:20.426Z,101019.94
2023-12-27T03:18:24.031Z,101026.47
2023-12-27T03:21:27.445Z,101021.00
2023-12-27T03:24:30.602Z,101027.16
2023-12-27T03:27:33.632Z,101034.88
2023-12-27T03:30:36.662Z,101031.72
2023-12-27T03:33:41.717Z,101042.88
2023-12-27T03:36:44.646Z,101044.75
2023-12-27T03:39:51.876Z,101052.88
2023-12-27T03:42:54.970Z,101053.22
2023-12-27T03:45:59.617Z,101052.38
2023-12-27T03:49:02.955Z,101040.38
2023-12-27T03:52:06.301Z,101057.38
2023-12-27T03:55:09.550Z,101045.47
2023-12-27T03:58:13.188Z,101047.81
2023-12-27T04:01:21.186Z,101043.97
2023-12-27T04:04:24.481Z,101047.75
2023-12-27T04:07:27.551Z,101053.09
2023-12-27T04:10:32.936Z,101061.94
2023-12-27T04:13:35.897Z,101065.75
2023-12-27T04:16:39.032Z,101065.66
2023-12-27T04:19:42.076Z,101064.75
2023-12-27T04:22:45.225Z,101065.56
2023-12-27T04:25:48.146Z,101069.78
2023-12-27T04:28:51.262Z,101078.22
2023-12-27T04:31:54.441Z,101087.13
2023-12-27T04:34:57.631Z,101076.69
2023-12-27T04:38:01.085Z,101075.44
2023-12-27T04:41:10.165Z,101081.22
2023-12-27T04:44:13.004Z,101081.19
2023-12-27T04:47:16.114Z,101098.88
2023-12-27T04:50:19.368Z,101103.03
2023-12-27T04:53:22.233Z,101112.63
2023-12-27T04:56:25.355Z,101112.47
2023-12-27T04:59:28.571Z,101119.34
2023-12-27T05:02:31.747Z,101124.69
2023-12-27T05:05:34.891Z,101127.28
2023-12-27T05:08:44.143Z,101129.53
2023-12-27T05:11:47.232Z,101130.91
2023-12-27T05:14:50.683Z,101129.81
2023-12-27T05:17:53.941Z,101128.94
2023-12-27T05:20:57.271Z,101126.59
2023-12-27T05:24:00.110Z,101144.69
2023-12-27T05:27:03.067Z,101145.00
2023-12-27T05:30:10.134Z,101145.28
2023-12-27T05:33:14.700Z,101152.50
2023-12-27T05:36:17.727Z,101154.00
2023-12-27T05:39:20.570Z,101160.13
2023-12-27T05:42:23.484Z,101170.09
2023-12-27T05:45:26.602Z,101170.38
2023-12-27T05:48:29.936Z,101168.47
2023-12-27T05:51:34.415Z,101167.16
2023-12-27T05:54:38.050Z,101164.47
2023-12-27T05:57:41.510Z,101164.41
2023-12-27T06:00:44.692Z,101166.84
2023-12-27T06:03:47.977Z,101176.75
2023-12-27T06:06:51.008Z,101177.00
2023-12-27T06:09:54.066Z,101179.63
2023-12-27T06:12:57.259Z,101196.09
2023-12-27T06:16:00.524Z,101198.25
2023-12-27T06:19:04.111Z,101203.50
2023-12-27T06:22:07.438Z,101204.50
2023-12-27T06:25:10.657Z,101197.97
2023-12-27T06:28:13.471Z,101208.41
2023-12-27T06:31:16.773Z,101218.00
2023-12-27T06:34:20.306Z,101207.22
2023-12-27T06:37:23.615Z,101221.47
2023-12-27T06:40:26.382Z,101228.41
2023-12-27T06:43:31.926Z,101229.25
2023-12-27T06:46:35.977Z,101247.13
2023-12-27T06:49:38.855Z,101249.56
2023-12-27T06:52:41.931Z,101256.94
2023-12-27T06:55:44.989Z,101253.63
2023-12-27T06:58:48.125Z,101256.59
2023-12-27T07:01:51.255Z,101256.09
2023-12-27T07:04:55.094Z,101251.25
2023-12-27T07:07:58.375Z,101256.06
2023-12-27T07:11:01.433Z,101262.00
2023-12-27T07:14:04.760Z,101267.94
2023-12-27T07:17:08.354Z,101272.72
2023-12-27T07:20:11.857Z,101274.72
2023-12-27T07:23:14.913Z,101279.22
2023-12-27T07:26:20.229Z,101285.47
2023-12-27T07:29:23.074Z,101284.84
2023-12-27T07:32:26.451Z,101298.16
2023-12-27T07:35:31.290Z,101296.28
2023-12-27T07:38:34.205Z,101297.59
2023-12-27T07:41:37.162Z,101307.88
2023-12-27T07:44:40.446Z,101313.03
2023-12-27T07:47:44.338Z,101317.81
2023-12-27T07:50:47.649Z,101320.31
2023-12-27T07:54:16.291Z,101323.97
2023-12-27T07:57:19.267Z,101319.94
2023-12-27T08:00:23.038Z,101319.03
2023-12-27T08:03:26.456Z,101318.47
2023-12-27T08:06:29.679Z,101329.94
2023-12-27T08:09:32.885Z,101332.06
2023-12-27T08:12:36.206Z,101336.94
2023-12-27T08:15:39.438Z,101348.28
2023-12-27T08:18:42.954Z,101344.38
2023-12-27T08:21:45.786Z,101353.19
2023-12-27T08:24:48.830Z,101359.63
2023-12-27T08:27:51.640Z,101362.16
2023-12-27T08:30:54.937Z,101381.38
2023-12-27T08:34:00.586Z,101398.75
2023-12-27T08:37:03.658Z,101398.34
2023-12-27T08:40:08.029Z,101397.69
2023-12-27T08:43:13.973Z,101399.22
2023-12-27T08:46:17.879Z,101409.81
2023-12-27T08:49:20.771Z,101409.44
2023-12-27T08:52:23.640Z,101404.72
2023-12-27T08:55:26.719Z,101416.28
2023-12-27T08:58:29.602Z,101417.78
2023-12-27T09:01:33.080Z,101427.75
2023-12-27T09:04:36.190Z,101432.09
2023-12-27T09:07:39.148Z,101450.25
2023-12-27T09:10:42.221Z,101430.13
2023-12-27T09:13:46.523Z,101432.28
2023-12-27T09:16:49.850Z,101450.38
2023-12-27T09:19:53.481Z,101444.59
2023-12-27T09:22:56.702Z,101450.03
2023-12-27T09:25:59.723Z,101451.63
2023-12-27T09:29:03.475Z,101455.00
2023-12-27T09:32:06.805Z,101454.31
2023-12-27T09:35:10.118Z,101451.91
2023-12-27T09:38:12.987Z,101447.75
2023-12-27T09:41:16.169Z,101444.69
2023-12-27T09:44:21.662Z,101446.78
2023-12-27T09:47:26.880Z,101435.28
2023-12-27T09:50:30.423Z,101439.22
2023-12-27T09:53:33.764Z,101440.84
2023-12-27T09:56:37.737Z,101440.75
2023-12-27T09:59:46.481Z,101449.84
2023-12-27T10:02:54.254Z,101441.47
2023-12-27T10:06:22.453Z,101441.13
2023-12-27T10:09:25.790Z,101439.13
2023-12-27T10:12:29.132Z,101443.44
2023-12-27T10:15:32.582Z,101434.09
2023-12-27T10:18:35.970Z,101432.16
2023-12-27T10:21:43.663Z,101444.66
2023-12-27T10:24:47.805Z,101437.63
2023-12-27T10:27:50.947Z,101439.53
2023-12-27T10:30:55.717Z,101435.97
2023-12-27T10:34:04.164Z,101423.56
2023-12-27T10:37:13.158Z,101432.13
2023-12-27T10:40:16.413Z,101423.63
2023-12-27T10:43:20.020Z,101422.88
2023-12-27T10:46:23.579Z,101426.78
2023-12-27T10:49:28.137Z,101412.75
2023-12-27T10:52:31.925Z,101412.38
2023-12-27T10:55:36.079Z,101414.31
2023-12-27T10:58:44.183Z,101410.03
2023-12-27T11:01:47.698Z,101402.25
2023-12-27T11:04:52.494Z,101392.56
2023-12-27T11:07:56.582Z,101398.38
2023-12-27T11:11:02.834Z,101395.59
2023-12-27T11:14:09.314Z,101409.41
2023-12-27T11:17:14.469Z,101389.97
2023-12-27T11:20:19.383Z,101391.16
2023-12-27T11:23:23.462Z,101386.91
2023-12-27T11:26:27.397Z,101387.31
2023-12-27T11:29:31.034Z,101387.34
2023-12-27T11:32:34.385Z,101394.34
2023-12-27T11:35:38.771Z,101392.00
2023-12-27T11:38:42.243Z,101392.38
2023-12-27T11:41:45.480Z,101386.16
2023-12-27T11:44:55.461Z,101382.66
2023-12-27T11:47:58.947Z,101391.19
2023-12-27T11:51:03.914Z,101384.59
2023-12-27T11:54:09.237Z,101386.19
2023-12-27T11:57:12.956Z,101376.09
2023-12-27T12:00:31.498Z,101362.97
2023-12-27T12:03:38.114Z,101364.19
2023-12-27T12:06:47.255Z,101368.44
2023-12-27T12:09:51.030Z,101369.19
2023-12-27T12:12:58.712Z,101363.28
2023-12-27T12:16:02.263Z,101358.56
2023-12-27T12:19:06.516Z,101349.91
2023-12-27T12:22:09.481Z,101349.78
2023-12-27T12:25:12.967Z,101348.09
2023-12-27T12:28:15.727Z,101341.81
2023-12-27T12:31:19.060Z,101340.59
2023-12-27T12:34:23.146Z,101341.28
2023-12-27T12:37:26.437Z,101331.19
2023-12-27T12:40:29.931Z,101345.13
2023-12-27T12:43:33.027Z,101350.53
2023-12-27T12:46:36.418Z,101343.25
2023-12-27T12:49:39.929Z,101347.53
2023-12-27T12:52:43.693Z,101340.28
2023-12-27T12:55:46.800Z,101347.25
2023-12-27T12:58:50.207Z,101347.31
2023-12-27T13:01:53.012Z,101339.50
2023-12-27T13:04:59.054Z,101335.28
2023-12-27T13:08:07.169Z,101329.53
2023-12-27T13:11:12.304Z,101330.28
2023-12-27T13:14:17.063Z,101319.81
2023-12-27T13:17:20.554Z,101324.50
2023-12-27T13:20:23.772Z,101315.59
2023-12-27T13:23:26.661Z,101316.66
2023-12-27T13:26:29.782Z,101315.41
2023-12-27T13:29:32.885Z,101319.63
2023-12-27T13:32:37.055Z,101312.91
2023-12-27T13:35:40.250Z,101309.69
2023-12-27T13:38:43.165Z,101312.25
2023-12-27T13:41:46.233Z,101314.44
2023-12-27T13:44:50.075Z,101317.09
2023-12-27T13:47:53.321Z,101312.38
2023-12-27T13:50:56.691Z,101316.94
2023-12-27T13:54:05.903Z,101305.34
2023-12-27T13:57:15.781Z,101307.59
2023-12-27T14:00:20.308Z,101314.84
2023-12-27T14:03:23.280Z,101308.69
2023-12-27T14:06:26.339Z,101305.56
2023-12-27T14:09:30.194Z,101305.16
2023-12-27T14:12:33.064Z,101296.22
2023-12-27T14:15:36.154Z,101297.72
2023-12-27T14:18:39.084Z,101299.56
2023-12-27T14:21:42.413Z,101297.84
2023-12-27T14:24:45.603Z,101294.03
2023-12-27T14:27:48.750Z,101299.75
2023-12-27T14:30:52.949Z,101300.06
2023-12-27T14:33:57.499Z,101289.22
2023-12-27T14:37:00.698Z,101291.88
2023-12-27T14:40:07.650Z,101282.53
2023-12-27T14:43:11.544Z,101285.47
2023-12-27T14:46:16.096Z,101283.88
2023-12-27T14:49:19.700Z,101285.28
2023-12-27T14:52:22.980Z,101286.00
2023-12-27T14:55:26.119Z,101289.44
2023-12-27T14:58:31.869Z,101282.09
2023-12-27T15:01:35.146Z,101282.06
2023-12-27T15:04:38.393Z,101282.31
2023-12-27T15:07:41.342Z,101275.25
2023-12-27T15:10:44.297Z,101274.69
2023-12-27T15:13:47.331Z,101283.50
2023-12-27T15:16:51.646Z,101276.88
2023-12-27T15:19:54.633Z,101274.88
2023-12-27T15:23:01.954Z,101274.00
2023-12-27T15:26:04.975Z,101274.66
2023-12-27T15:29:07.856Z,101268.38
2023-12-27T15:32:10.986Z,101278.31
2023-12-27T15:35:15.986Z,101271.25
2023-12-27T15:38:18.863Z,101273.16
2023-12-27T15:41:27.144Z,101278.81
2023-12-27T15:44:30.173Z,101279.44
2023-12-27T15:47:33.126Z,101274.06
2023-12-27T15:50:36.408Z,101287.47
2023-12-27T15:53:39.528Z,101274.63
2023-12-27T15:56:46.337Z,101268.28
2023-12-27T15:59:51.341Z,101273.38
2023-12-27T16:02:54.562Z,101274.44
2023-12-27T16:05:57.391Z,101268.97
2023-12-27T16:09:00.544Z,101277.72
2023-12-27T16:12:04.840Z,101274.97
2023-12-27T16:15:10.436Z,101278.38
2023-12-27T16:18:13.582Z,101280.81
2023-12-27T16:21:20.621Z,101282.09
2023-12-27T16:24:24.056Z,101284.00
2023-12-27T16:27:27.330Z,101275.78
2023-12-27T16:30:33.298Z,101274.06
2023-12-27T16:33:36.672Z,101274.06
2023-12-27T16:36:39.762Z,101264.84
2023-12-27T16:39:42.854Z,101262.44
2023-12-27T16:42:50.241Z,101265.84
2023-12-27T16:45:53.821Z,101254.56
2023-12-27T16:48:59.308Z,101260.28
2023-12-27T16:52:03.916Z,101261.78
2023-12-27T16:55:07.630Z,101263.69
2023-12-27T16:58:11.034Z,101268.22
2023-12-27T17:01:14.242Z,101271.28
2023-12-27T17:04:17.240Z,101272.31
2023-12-27T17:07:20.383Z,101268.06
2023-12-27T17:10:24.382Z,101272.78
2023-12-27T17:13:27.669Z,101264.19
2023-12-27T17:16:30.514Z,101263.06
2023-12-27T17:19:33.500Z,101251.50
2023-12-27T17:22:36.926Z,101265.53
2023-12-27T17:25:41.542Z,101273.06
2023-12-27T17:28:44.776Z,101277.38
2023-12-27T17:31:49.522Z,101287.56
2023-12-27T17:34:52.936Z,101292.84
2023-12-27T17:37:56.039Z,101294.84
2023-12-27T17:40:59.895Z,101298.84
2023-12-27T17:44:03.229Z,101292.59
2023-12-27T17:47:06.418Z,101293.31
2023-12-27T17:50:09.850Z,101284.78
2023-12-27T17:53:14.157Z,101289.91
2023-12-27T17:56:17.037Z,101294.94
2023-12-27T17:59:22.525Z,101299.63
2023-12-27T18:02:25.500Z,101300.31
2023-12-27T18:05:32.531Z,101301.81
2023-12-27T18:08:38.613Z,101299.13
2023-12-27T18:11:42.856Z,101291.75
2023-12-27T18:14:47.543Z,101266.31
2023-12-27T18:17:50.450Z,101272.47
2023-12-27T18:20:54.155Z,101273.25
2023-12-27T18:23:57.005Z,101268.81
2023-12-27T18:26:59.934Z,101265.69
2023-12-27T18:30:02.899Z,101269.50
2023-12-27T18:33:06.001Z,101267.69
2023-12-27T18:36:09.926Z,101276.44
2023-12-27T18:39:14.367Z,101262.03
2023-12-27T18:42:17.462Z,101258.47
2023-12-27T18:45:20.530Z,101276.09
2023-12-27T18:48:23.690Z,101271.84
2023-12-27T18:51:26.965Z,101283.03
2023-12-27T18:54:29.878Z,101282.25
2023-12-27T18:57:34.951Z,101284.41
2023-12-27T19:00:38.233Z,101271.66
2023-12-27T19:03:43.497Z,101269.75
2023-12-27T19:06:46.723Z,101269.41
2023-12-27T19:09:49.884Z,101266.19
2023-12-27T19:12:53.214Z,101266.34
2023-12-27T19:15:56.124Z,101272.50
2023-12-27T19:18:59.614Z,101274.16
2023-12-27T19:22:04.466Z,101276.53
2023-12-27T19:25:07.871Z,101266.06
2023-12-27T19:28:11.029Z,101267.72
2023-12-27T19:31:14.287Z,101261.28
2023-12-27T19:34:20.169Z,101258.94
2023-12-27T19:37:23.344Z,101261.13
2023-12-27T19:40:26.543Z,101260.25
2023-12-27T19:43:30.469Z,101259.72
2023-12-27T19:46:33.536Z,101251.66
2023-12-27T19:49:36.586Z,101256.97
2023-12-27T19:52:39.720Z,101253.75
2023-12-27T19:55:42.609Z,101262.84
2023-12-27T19:58:45.818Z,101260.94
2023-12-27T20:01:49.076Z,101266.22
2023-12-27T20:04:52.178Z,101254.25
2023-12-27T20:07:55.537Z,101251.91
2023-12-27T20:10:58.458Z,101245.31
2023-12-27T20:14:01.533Z,101249.28
2023-12-27T20:17:04.898Z,101254.19
2023-12-27T20:20:08.514Z,101249.97
2023-12-27T20:23:13.026Z,101257.22
2023-12-27T20:26:16.970Z,101254.78
2023-12-27T20:29:20.041Z,101257.03
2023-12-27T20:32:22.921Z,101243.94
2023-12-27T20:35:25.837Z,101250.00
2023-12-27T20:38:30.175Z,101252.25
2023-12-27T20:41:34.031Z,101249.75
2023-12-27T20:44:37.344Z,101244.19
2023-12-27T20:47:40.604Z,101244.97
2023-12-27T20:50:43.942Z,101241.50
2023-12-27T20:53:47.963Z,101250.00
2023-12-27T20:56:51.161Z,101236.13
2023-12-27T20:59:54.108Z,101236.00
2023-12-27T21:02:56.983Z,101230.13
2023-12-27T21:05:59.951Z,101226.63
2023-12-27T21:09:04.178Z,101226.00
2023-12-27T21:12:07.426Z,101224.19
2023-12-27T21:15:11.186Z,101224.53
2023-12-27T21:18:14.926Z,101226.19
2023-12-27T21:21:18.483Z,101220.28
2023-12-27T21:24:21.491Z,101217.09
2023-12-27T21:27:24.890Z,101221.13
2023-12-27T21:30:27.989Z,101229.44
2023-12-27T21:33:31.065Z,101238.28
2023-12-27T21:36:34.478Z,101238.72
2023-12-27T21:39:37.520Z,101233.81
2023-12-27T21:42:40.747Z,101238.50
2023-12-27T21:45:44.048Z,101228.03
2023-12-27T21:48:47.095Z,101240.31
2023-12-27T21:51:50.104Z,101233.81
2023-12-27T21:54:53.468Z,101236.41
2023-12-27T21:57:56.784Z,101242.44
2023-12-27T22:01:00.106Z,101235.41
2023-12-27T22:04:05.985Z,101234.16
2023-12-27T22:07:10.796Z,101234.94
2023-12-27T22:10:34.961Z,101232.03
2023-12-27T22:13:40.641Z,101234.72
2023-12-27T22:16:45.261Z,101233.59
2023-12-27T22:19:48.438Z,101223.53
2023-12-27T22:22:52.717Z,101220.72
2023-12-27T22:25:55.835Z,101221.72
2023-12-27T22:28:59.061Z,101219.84
2023-12-27T22:32:02.166Z,101215.38
2023-12-27T22:35:05.329Z,101202.38
2023-12-27T22:38:09.499Z,101205.53
2023-12-27T22:41:12.382Z,101189.53
2023-12-27T22:44:15.482Z,101191.09
2023-12-27T22:47:20.488Z,101187.03
2023-12-27T22:50:24.660Z,101195.97
2023-12-27T22:53:27.784Z,101194.94
2023-12-27T22:56:30.891Z,101194.03
2023-12-27T22:59:33.764Z,101188.78
2023-12-27T23:02:37.023Z,101182.53
2023-12-27T23:05:39.857Z,101186.09
2023-12-27T23:08:42.708Z,101187.91
2023-12-27T23:11:46.279Z,101185.13
2023-12-27T23:14:49.517Z,101188.56
2023-12-27T23:17:52.507Z,101191.59
2023-12-27T23:20:55.387Z,101192.03
2023-12-27T23:23:58.536Z,101177.94
2023-12-27T23:27:01.468Z,101182.09
2023-12-27T23:30:05.099Z,101185.88
2023-12-27T23:33:08.402Z,101183.13
2023-12-27T23:36:12.050Z,101186.47
2023-12-27T23:39:16.104Z,101186.38
2023-12-27T23:42:19.013Z,101185.03
2023-12-27T23:45:21.930Z,101188.19
2023-12-27T23:48:25.268Z,101184.69
2023-12-27T23:51:29.881Z,101191.09
2023-12-27T23:54:33.323Z,101195.34
2023-12-27T23:57:36.386Z,101189.53
